Time;durP1;ratioP1;P1;durP2;ratioP2;P2;SDS_P1;SDS_P2;PMS_P1;PMS_P2;Temp;Humidity;BMP_temperature;BMP_pressure;BME280_temperature;BME280_humidity;BME280_pressure;Samples;Min_cycle;Max_cycle;Signal;HPM_P1;HPM_P2
2023/04/14 00:00:23;;;;;;;3.67;1.42;;;;;;;4.69;71.87;100779.59;4951894;28;20141;-78
2023/04/14 00:02:49;;;;;;;3.70;1.70;;;;;;;4.67;71.38;100777.91;4953067;28;20467;-78
2023/04/14 00:05:15;;;;;;;3.45;1.80;;;;;;;4.61;71.93;100776.16;4953570;28;20050;-77
2023/04/14 00:07:40;;;;;;;9.18;1.67;;;;;;;4.56;72.37;100778.75;4949339;28;20674;-78
2023/04/14 00:10:06;;;;;;;3.60;1.65;;;;;;;4.54;72.03;100771.91;4952536;28;20461;-78
2023/04/14 00:12:31;;;;;;;3.33;1.50;;;;;;;4.53;72.16;100783.91;4951568;28;20022;-77
2023/04/14 00:14:56;;;;;;;4.18;1.75;;;;;;;4.51;71.64;100787.38;4952105;28;20115;-77
2023/04/14 00:17:21;;;;;;;5.00;1.60;;;;;;;4.46;71.49;100783.94;4950530;28;20035;-77
2023/04/14 00:19:47;;;;;;;4.18;1.75;;;;;;;4.41;71.94;100786.53;4952680;28;20111;-77
2023/04/14 00:22:12;;;;;;;5.22;1.80;;;;;;;4.40;71.81;100793.41;4952585;28;20042;-77
2023/04/14 00:24:42;;;;;;;4.55;2.08;;;;;;;4.38;71.94;100792.53;4951401;28;20545;-77
2023/04/14 00:27:08;;;;;;;4.88;2.13;;;;;;;4.32;72.53;100789.97;4947404;28;20463;-78
2023/04/14 00:29:33;;;;;;;3.72;2.28;;;;;;;4.29;72.91;100796.84;4950773;28;20051;-77
2023/04/14 00:31:59;;;;;;;3.90;2.10;;;;;;;4.23;72.85;100788.25;4949701;28;20031;-77
2023/04/14 00:34:24;;;;;;;5.88;2.10;;;;;;;4.17;72.43;100788.28;4952500;28;20159;-77
2023/04/14 00:36:49;;;;;;;3.63;2.05;;;;;;;4.15;73.22;100791.69;4949929;28;20035;-77
2023/04/14 00:39:15;;;;;;;3.53;1.90;;;;;;;4.13;73.81;100786.56;4962239;28;20390;-77
2023/04/14 00:41:42;;;;;;;3.50;2.05;;;;;;;4.13;74.06;100794.28;4951376;28;20030;-77
2023/04/14 00:44:07;;;;;;;4.43;2.20;;;;;;;4.16;74.16;100790.84;4951950;28;20026;-78
2023/04/14 00:46:32;;;;;;;4.25;1.70;;;;;;;4.22;73.96;100790.84;4950071;28;20031;-77
2023/04/14 00:48:57;;;;;;;2.67;1.55;;;;;;;4.28;73.94;100793.38;4949001;28;20545;-77
2023/04/14 00:51:24;;;;;;;4.40;1.80;;;;;;;4.31;73.95;100790.81;4951094;28;20062;-77
2023/04/14 00:53:50;;;;;;;4.70;1.92;;;;;;;4.37;73.29;100797.69;4951107;28;20023;-77
2023/04/14 00:56:15;;;;;;;4.88;1.90;;;;;;;4.42;73.06;100795.13;4950928;28;20085;-77
2023/04/14 00:58:41;;;;;;;6.05;1.80;;;;;;;4.45;73.24;100800.25;4951402;28;20366;-77
2023/04/14 01:01:07;;;;;;;4.25;1.90;;;;;;;4.47;73.01;100807.13;4951075;28;20039;-77
2023/04/14 01:03:34;;;;;;;4.18;1.90;;;;;;;4.45;72.62;100803.69;4952823;28;20086;-77
2023/04/14 01:06:00;;;;;;;4.72;2.10;;;;;;;4.39;73.68;100814.00;4946952;28;21219;-77
2023/04/14 01:08:26;;;;;;;7.85;1.85;;;;;;;4.35;74.10;100812.31;4951901;28;20027;-77
2023/04/14 01:11:18;;;;;;;3.70;1.65;;;;;;;4.35;73.21;100809.72;4950956;28;20027;-77
2023/04/14 01:13:48;;;;;;;4.82;1.77;;;;;;;4.35;73.34;100805.41;4953276;28;20105;-77
2023/04/14 01:16:21;;;;;;;4.72;1.92;;;;;;;4.34;73.13;100805.44;4946942;28;20035;-77
2023/04/14 01:19:14;;;;;;;3.33;1.60;;;;;;;4.32;72.20;100805.41;4952152;28;20336;-77
2023/04/14 01:21:45;;;;;;;3.00;1.60;;;;;;;4.25;71.92;100807.13;4949707;28;20082;-77
2023/04/14 01:24:36;;;;;;;4.47;1.65;;;;;;;4.18;71.75;100807.13;4952107;28;20031;-77
2023/04/14 01:27:31;;;;;;;3.75;1.52;;;;;;;4.09;71.68;100798.56;4948850;28;20043;-77
2023/04/14 01:30:16;;;;;;;4.25;1.73;;;;;;;4.03;71.98;100797.69;4953655;28;20121;-77
2023/04/14 01:32:45;;;;;;;5.20;1.90;;;;;;;3.95;74.29;100800.25;4971487;28;20471;-78
2023/04/14 01:35:19;;;;;;;5.68;1.67;;;;;;;3.98;74.52;100802.84;4955505;28;20550;-77
2023/04/14 01:37:51;;;;;;;3.67;1.70;;;;;;;4.03;74.66;100801.13;4952920;28;20035;-77
2023/04/14 01:40:18;;;;;;;4.28;1.90;;;;;;;4.08;73.27;100802.00;4953314;28;20035;-77
2023/04/14 01:42:50;;;;;;;3.75;1.70;;;;;;;4.07;72.66;100802.84;4955128;28;20131;-77
2023/04/14 01:45:22;;;;;;;4.80;2.03;;;;;;;4.04;73.20;100808.00;4955411;28;20031;-77
2023/04/14 01:47:49;;;;;;;4.50;1.88;;;;;;;3.99;73.10;100811.44;4954001;28;20410;-77
2023/04/14 01:50:15;;;;;;;4.95;2.00;;;;;;;3.90;73.42;100813.13;4955046;28;20023;-77
2023/04/14 01:52:43;;;;;;;4.57;1.90;;;;;;;3.89;72.82;100815.72;4954766;28;20030;-77
2023/04/14 01:55:10;;;;;;;3.55;1.63;;;;;;;3.85;73.29;100819.13;4954266;28;20035;-77
2023/04/14 01:57:38;;;;;;;3.20;1.98;;;;;;;3.79;74.00;100812.25;4952832;28;20023;-77
2023/04/14 02:00:06;;;;;;;5.53;2.05;;;;;;;3.77;73.86;100808.81;4954697;28;20538;-77
2023/04/14 02:02:34;;;;;;;3.78;1.75;;;;;;;3.70;74.12;100818.25;4953364;28;20035;-77
2023/04/14 02:05:00;;;;;;;3.42;1.70;;;;;;;3.66;74.80;100829.38;4952712;28;20027;-77
2023/04/14 02:07:28;;;;;;;3.78;1.70;;;;;;;3.63;74.25;100826.78;4953540;28;20498;-77
2023/04/14 02:09:57;;;;;;;3.63;1.70;;;;;;;3.60;74.11;100827.66;4959931;28;20568;-77
2023/04/14 02:12:25;;;;;;;4.27;1.40;;;;;;;3.54;74.23;100825.06;4950568;28;20067;-77
2023/04/14 02:14:53;;;;;;;4.50;1.67;;;;;;;3.54;73.97;100837.06;4953236;28;20130;-77
2023/04/14 02:17:20;;;;;;;4.60;1.50;;;;;;;3.48;73.81;100828.47;4952034;28;20134;-77
2023/04/14 02:19:46;;;;;;;4.47;1.53;;;;;;;3.41;73.97;100831.88;4952897;28;20027;-77
2023/04/14 02:22:12;;;;;;;4.17;1.67;;;;;;;3.40;74.13;100835.31;4953477;28;20101;-77
2023/04/14 02:24:37;;;;;;;2.60;1.60;;;;;;;3.36;74.44;100833.56;4951230;28;20435;-77
2023/04/14 02:27:09;;;;;;;2.67;1.50;;;;;;;3.35;74.57;100831.84;4954611;28;20113;-77
2023/04/14 02:29:37;;;;;;;5.65;1.60;;;;;;;3.34;74.31;100841.25;4951571;28;20047;-77
2023/04/14 02:32:06;;;;;;;4.00;1.70;;;;;;;3.32;74.49;100839.56;4952079;28;20031;-77
2023/04/14 02:34:37;;;;;;;4.03;1.60;;;;;;;3.30;74.75;100843.81;4952548;28;20507;-77
2023/04/14 02:37:08;;;;;;;3.50;1.63;;;;;;;3.28;74.31;100851.53;4953964;28;20027;-78
2023/04/14 02:39:41;;;;;;;5.13;1.73;;;;;;;3.26;74.29;100850.69;4952152;28;20106;-77
2023/04/14 02:42:18;;;;;;;4.00;1.87;;;;;;;3.25;74.17;100855.78;4952130;28;20035;-77
2023/04/14 02:44:55;;;;;;;4.87;2.10;;;;;;;3.22;74.20;100850.66;4951613;28;20360;-77
2023/04/14 02:47:39;;;;;;;5.23;1.80;;;;;;;3.18;74.46;100855.78;4953637;28;20055;-77
2023/04/14 02:50:09;;;;;;;4.43;1.93;;;;;;;3.19;76.02;100861.75;4952669;28;20027;-77
2023/04/14 02:52:36;;;;;;;3.77;1.80;;;;;;;3.18;76.37;100855.78;4950204;28;20023;-77
2023/04/14 02:55:04;;;;;;;3.90;1.80;;;;;;;3.22;75.49;100848.94;4950302;28;20038;-77
2023/04/14 02:57:31;;;;;;;4.20;1.87;;;;;;;3.25;77.15;100850.66;4952639;28;20035;-77
2023/04/14 02:59:59;;;;;;;4.50;1.90;;;;;;;3.31;77.27;100855.84;4953006;28;20479;-77
2023/04/14 03:02:24;;;;;;;5.20;2.10;;;;;;;3.37;77.00;100850.72;4949070;28;20110;-77
2023/04/14 03:04:52;;;;;;;5.17;1.67;;;;;;;3.44;77.23;100854.19;4952155;28;20113;-77
2023/04/14 03:07:19;;;;;;;4.00;1.63;;;;;;;3.48;77.33;100859.34;4967067;28;20027;-77
2023/04/14 03:09:48;;;;;;;3.43;1.50;;;;;;;3.51;76.97;100853.31;4952722;28;20534;-77
2023/04/14 03:12:14;;;;;;;4.43;1.90;;;;;;;3.53;76.71;100858.50;4952169;28;20031;-77
2023/04/14 03:14:41;;;;;;;4.43;1.67;;;;;;;3.55;76.24;100860.22;4948727;28;20034;-78
2023/04/14 03:17:08;;;;;;;3.80;1.70;;;;;;;3.57;76.03;100853.34;4951586;28;20396;-77
2023/04/14 03:19:35;;;;;;;6.30;2.00;;;;;;;3.56;76.02;100850.78;4952230;28;20027;-77
2023/04/14 03:22:02;;;;;;;4.30;1.77;;;;;;;3.56;76.04;100850.78;4951057;28;20031;-77
2023/04/14 03:24:30;;;;;;;3.73;1.80;;;;;;;3.55;76.25;100854.22;4952450;28;20546;-77
2023/04/14 03:27:04;;;;;;;7.27;2.07;;;;;;;3.56;75.33;100850.78;4954184;28;20038;-77
2023/04/14 03:29:36;;;;;;;4.97;2.00;;;;;;;3.55;74.98;100846.50;4952811;28;20047;-77
2023/04/14 03:32:05;;;;;;;4.87;1.90;;;;;;;3.49;75.78;100850.75;4951269;28;20163;-77
2023/04/14 03:34:33;;;;;;;5.90;1.90;;;;;;;3.44;75.52;100854.19;4953298;28;20541;-78
2023/04/14 03:36:59;;;;;;;6.10;2.20;;;;;;;3.38;75.77;100847.31;4948717;28;20031;-77
2023/04/14 03:39:29;;;;;;;5.53;2.03;;;;;;;3.37;75.93;100860.13;4954256;28;20050;-77
2023/04/14 03:41:56;;;;;;;4.60;2.00;;;;;;;3.32;76.13;100854.97;4951856;28;20118;-77
2023/04/14 03:44:24;;;;;;;3.70;2.17;;;;;;;3.27;76.17;100856.66;4948952;28;20067;-77
2023/04/14 03:46:50;;;;;;;6.30;2.17;;;;;;;3.23;76.18;100862.66;4952719;28;20435;-77
2023/04/14 03:49:17;;;;;;;3.53;1.80;;;;;;;3.18;76.25;100860.91;4949349;28;20633;-77
2023/04/14 03:51:48;;;;;;;3.23;1.70;;;;;;;3.17;76.15;100871.19;4947830;28;20450;-76
2023/04/14 03:54:15;;;;;;;4.53;2.15;;;;;;;3.14;75.91;100877.16;4950844;28;20122;-77
2023/04/14 03:56:44;;;;;;;5.50;2.50;;;;;;;3.11;77.17;100876.31;4951443;28;20027;-77
2023/04/14 03:59:13;;;;;;;5.53;1.87;;;;;;;3.12;76.68;100876.31;4950585;28;20110;-77
2023/04/14 04:01:40;;;;;;;4.17;1.83;;;;;;;3.10;76.90;100865.16;4951463;28;20094;-77
2023/04/14 04:04:06;;;;;;;5.73;2.00;;;;;;;3.11;76.71;100873.75;4953329;28;20161;-77
2023/04/14 04:06:32;;;;;;;5.47;2.03;;;;;;;3.10;77.27;100877.16;4952599;28;20102;-77
2023/04/14 04:09:00;;;;;;;4.70;1.87;;;;;;;3.09;77.17;100866.00;4951683;28;20390;-77
2023/04/14 04:11:26;;;;;;;4.67;2.20;;;;;;;3.09;77.31;100870.28;4950819;28;20035;-77
2023/04/14 04:13:54;;;;;;;4.93;1.70;;;;;;;3.09;77.60;100871.13;4952665;28;20027;-77
2023/04/14 04:16:21;;;;;;;4.90;2.00;;;;;;;3.09;77.59;100866.00;4951218;28;20071;-77
2023/04/14 04:18:49;;;;;;;5.10;1.80;;;;;;;3.11;77.85;100869.44;4946691;28;20129;-77
2023/04/14 04:21:17;;;;;;;3.67;1.93;;;;;;;3.09;77.79;100873.72;4952226;28;20027;-77
2023/04/14 04:23:46;;;;;;;6.03;2.00;;;;;;;3.08;77.57;100874.56;4950480;28;20093;-77
2023/04/14 04:26:12;;;;;;;5.17;1.90;;;;;;;3.09;77.21;100875.44;4953852;28;20031;-77
2023/04/14 04:28:39;;;;;;;3.90;1.90;;;;;;;3.10;77.22;100878.00;4942831;28;20414;-77
2023/04/14 04:31:05;;;;;;;5.30;2.00;;;;;;;3.10;77.42;100880.56;4950096;28;20035;-77
2023/04/14 04:33:33;;;;;;;3.87;1.87;;;;;;;3.10;77.11;100888.28;4950903;28;20427;-77
2023/04/14 04:36:00;;;;;;;4.60;2.10;;;;;;;3.10;77.44;100888.28;4953012;28;20020;-77
2023/04/14 04:38:25;;;;;;;5.20;2.20;;;;;;;3.09;78.28;100878.84;4949121;28;20027;-77
2023/04/14 04:40:50;;;;;;;8.00;2.30;;;;;;;3.13;78.89;100883.16;4951964;28;20039;-77
2023/04/14 04:43:17;;;;;;;5.83;2.00;;;;;;;3.17;79.42;100874.63;4950486;28;20051;-77
2023/04/14 04:45:50;;;;;;;4.20;2.03;;;;;;;3.23;79.09;100875.53;4945299;28;20019;-77
2023/04/14 04:48:16;;;;;;;6.00;1.93;;;;;;;3.27;79.07;100870.41;4950313;28;20026;-77
2023/04/14 04:50:41;;;;;;;6.83;2.27;;;;;;;3.30;79.14;100878.13;4950931;28;20027;-77
2023/04/14 04:53:06;;;;;;;3.83;1.80;;;;;;;3.31;78.06;100877.28;4948114;28;20471;-77
2023/04/14 04:55:31;;;;;;;5.63;2.00;;;;;;;3.31;77.82;100881.53;4950996;28;20031;-77
2023/04/14 04:57:57;;;;;;;4.20;1.90;;;;;;;3.29;77.60;100883.25;4950397;28;20412;-77
2023/04/14 05:00:24;;;;;;;3.80;1.77;;;;;;;3.25;78.12;100881.50;4947169;28;20030;-77
2023/04/14 05:02:50;;;;;;;4.63;2.03;;;;;;;3.24;78.06;100879.81;4949023;28;20015;-77
2023/04/14 05:05:15;;;;;;;3.67;2.10;;;;;;;3.27;79.08;100879.81;4951897;28;20502;-77
2023/04/14 05:07:41;;;;;;;3.80;1.93;;;;;;;3.32;79.35;100872.97;4952301;28;20262;-77
2023/04/14 05:10:07;;;;;;;7.17;2.20;;;;;;;3.37;78.98;100875.56;4947401;28;20027;-77
2023/04/14 05:12:32;;;;;;;2.87;1.73;;;;;;;3.41;77.85;100880.75;4964746;28;20542;-77
2023/04/14 05:14:57;;;;;;;6.07;2.00;;;;;;;3.41;77.38;100878.19;4952446;28;20035;-77
2023/04/14 05:17:23;;;;;;;6.27;2.10;;;;;;;3.38;77.15;100875.59;4955410;28;20448;-77
2023/04/14 05:19:48;;;;;;;3.93;1.93;;;;;;;3.39;76.93;100873.88;4948788;28;20023;-77
2023/04/14 05:22:13;;;;;;;6.03;2.03;;;;;;;3.37;77.49;100875.56;4949140;28;20456;-78
2023/04/14 05:24:38;;;;;;;4.30;1.87;;;;;;;3.35;78.21;100878.13;4950414;28;20068;-77
2023/04/14 05:27:04;;;;;;;4.13;1.90;;;;;;;3.36;77.56;100867.00;4952663;28;20419;-77
2023/04/14 05:29:30;;;;;;;6.70;2.40;;;;;;;3.38;77.70;100872.13;4945587;28;20058;-78
2023/04/14 05:31:55;;;;;;;3.97;2.13;;;;;;;3.36;77.85;100869.56;4947412;28;20028;-77
2023/04/14 05:34:20;;;;;;;4.10;1.90;;;;;;;3.36;77.51;100879.88;4939956;28;20023;-77
2023/04/14 05:36:46;;;;;;;4.00;1.80;;;;;;;3.33;77.58;100874.69;4948292;28;20023;-77
2023/04/14 05:39:12;;;;;;;4.40;1.97;;;;;;;3.28;78.44;100871.25;4959938;28;20023;-77
2023/04/14 05:41:37;;;;;;;3.93;1.97;;;;;;;3.30;78.32;100864.41;4951939;28;20066;-77
2023/04/14 05:44:03;;;;;;;6.28;2.13;;;;;;;3.36;78.39;100868.69;4944733;28;20077;-77
2023/04/14 05:46:28;;;;;;;4.47;2.00;;;;;;;3.38;78.40;100864.44;4948254;28;20030;-78
2023/04/14 05:48:53;;;;;;;3.50;1.83;;;;;;;3.40;79.17;100871.31;4949413;28;20406;-77
2023/04/14 05:51:18;;;;;;;4.60;1.97;;;;;;;3.46;79.54;100875.63;4950967;28;20030;-78
2023/04/14 05:53:44;;;;;;;5.33;2.10;;;;;;;3.53;79.72;100881.66;4951635;28;20494;-77
2023/04/14 05:56:10;;;;;;;5.75;2.38;;;;;;;3.59;79.16;100879.06;4951456;28;20089;-77
2023/04/14 05:58:36;;;;;;;4.50;2.23;;;;;;;3.66;79.16;100887.72;4948097;28;20027;-77
2023/04/14 06:01:02;;;;;;;3.87;2.10;;;;;;;3.71;79.17;100881.72;4948862;28;20027;-77
2023/04/14 06:03:28;;;;;;;5.20;2.20;;;;;;;3.77;79.36;100886.88;4961505;28;20055;-77
2023/04/14 06:05:54;;;;;;;5.32;2.28;;;;;;;3.83;79.95;100880.91;4949526;28;20027;-77
2023/04/14 06:08:19;;;;;;;6.20;2.37;;;;;;;3.89;79.78;100885.19;4950955;28;20419;-77
2023/04/14 06:10:45;;;;;;;4.88;2.42;;;;;;;3.99;79.90;100880.94;4950321;28;20023;-78
2023/04/14 06:13:11;;;;;;;4.97;2.33;;;;;;;4.04;79.69;100885.22;4950228;28;20383;-77
2023/04/14 06:15:36;;;;;;;6.78;2.38;;;;;;;4.10;80.17;100886.94;4963796;28;20116;-77
2023/04/14 06:18:01;;;;;;;6.60;2.50;;;;;;;4.15;80.05;100871.50;4954754;28;20029;-77
2023/04/14 06:20:26;;;;;;;5.78;2.42;;;;;;;4.21;80.69;100876.66;4953442;28;20535;-77
2023/04/14 06:22:52;;;;;;;5.32;2.42;;;;;;;4.28;80.67;100875.81;4951926;28;20027;-77
2023/04/14 06:25:17;;;;;;;4.90;2.70;;;;;;;4.39;80.25;100875.81;4955697;28;20027;-77
2023/04/14 06:27:42;;;;;;;7.65;2.72;;;;;;;4.50;80.54;100873.25;4952885;28;20042;-77
2023/04/14 06:30:08;;;;;;;7.05;2.85;;;;;;;4.60;80.47;100872.41;4953749;28;20053;-78
2023/04/14 06:32:33;;;;;;;7.10;2.58;;;;;;;4.70;81.49;100870.66;4955447;28;20101;-78
2023/04/14 06:34:59;;;;;;;7.05;2.45;;;;;;;4.81;80.87;100875.78;4952811;28;20547;-78
2023/04/14 06:37:24;;;;;;;6.97;2.70;;;;;;;4.88;80.78;100877.50;4952228;28;20466;-78
2023/04/14 06:39:49;;;;;;;8.27;3.10;;;;;;;4.96;81.02;100873.19;4952740;28;20023;-78
2023/04/14 06:42:15;;;;;;;6.78;2.83;;;;;;;5.04;80.18;100877.47;4955235;28;20479;-78
2023/04/14 06:44:40;;;;;;;5.72;2.67;;;;;;;5.09;80.68;100873.19;4951029;28;20035;-78
2023/04/14 06:47:06;;;;;;;5.82;2.78;;;;;;;5.12;79.87;100874.03;4952023;28;20106;-77
2023/04/14 06:49:31;;;;;;;5.55;2.50;;;;;;;5.14;79.62;100866.25;4950641;28;20031;-78
2023/04/14 06:51:57;;;;;;;5.30;2.60;;;;;;;5.17;80.34;100871.41;4953884;28;20030;-77
2023/04/14 06:54:22;;;;;;;5.22;2.40;;;;;;;5.22;79.74;100867.13;4966126;28;20360;-77
2023/04/14 06:56:47;;;;;;;6.57;2.88;;;;;;;5.27;79.10;100861.94;4951098;28;20095;-77
2023/04/14 06:59:13;;;;;;;7.18;2.88;;;;;;;5.30;78.85;100864.50;4955233;28;20397;-78
2023/04/14 07:01:38;;;;;;;6.07;2.67;;;;;;;5.32;78.56;100861.06;4951810;28;20101;-77
2023/04/14 07:04:03;;;;;;;4.82;2.63;;;;;;;5.37;79.30;100863.63;4952220;28;20035;-78
2023/04/14 07:06:28;;;;;;;7.07;2.92;;;;;;;5.41;77.83;100846.41;4961383;28;20031;-77
2023/04/14 07:08:55;;;;;;;6.15;2.70;;;;;;;5.46;78.32;100844.69;4953194;28;20031;-77
2023/04/14 07:11:20;;;;;;;5.03;2.50;;;;;;;5.52;79.39;100846.38;4954246;28;20034;-77
2023/04/14 07:13:45;;;;;;;5.53;2.42;;;;;;;5.60;79.57;100845.47;4971426;28;20023;-78
2023/04/14 07:16:11;;;;;;;7.45;2.40;;;;;;;5.67;78.99;100840.25;4951888;28;20042;-78
2023/04/14 07:18:37;;;;;;;6.72;2.65;;;;;;;5.74;79.36;100845.38;4965986;28;20027;-77
2023/04/14 07:21:02;;;;;;;6.65;2.80;;;;;;;5.82;79.42;100832.41;4952710;28;20031;-78
2023/04/14 07:23:28;;;;;;;5.72;2.20;;;;;;;5.90;78.68;100846.16;4954460;28;20050;-78
2023/04/14 07:25:56;;;;;;;5.38;2.15;;;;;;;5.99;79.24;100841.78;4951290;28;20043;-78
2023/04/14 07:28:22;;;;;;;5.68;2.10;;;;;;;6.08;78.14;100841.75;4949820;28;20027;-77
2023/04/14 07:30:48;;;;;;;6.13;2.28;;;;;;;6.16;78.54;100839.13;4952529;28;20046;-78
2023/04/14 07:33:17;;;;;;;3.25;2.08;;;;;;;6.25;78.90;100831.28;4952810;28;20023;-77
2023/04/14 07:35:44;;;;;;;4.50;2.20;;;;;;;6.33;78.07;100831.22;4949806;28;20386;-77
2023/04/14 07:38:09;;;;;;;4.88;2.20;;;;;;;6.41;77.88;100826.00;4950650;28;20042;-77
2023/04/14 07:40:34;;;;;;;5.95;2.45;;;;;;;6.46;76.82;100827.69;4949021;28;20026;-78
2023/04/14 07:43:00;;;;;;;5.20;2.10;;;;;;;6.55;77.10;100826.75;4942160;28;20482;-77
2023/04/14 07:45:25;;;;;;;5.07;2.40;;;;;;;6.63;76.85;100826.69;4949350;28;20024;-77
2023/04/14 07:47:51;;;;;;;4.82;1.80;;;;;;;6.70;77.88;100817.97;4945327;28;20050;-77
2023/04/14 07:50:16;;;;;;;6.68;2.20;;;;;;;6.77;77.38;100816.16;4947413;28;20731;-78
2023/04/14 07:52:42;;;;;;;5.80;2.20;;;;;;;6.84;76.03;100820.41;4947328;28;20023;-77
2023/04/14 07:55:07;;;;;;;5.63;2.20;;;;;;;6.90;75.79;100816.91;4946690;28;20093;-78
2023/04/14 07:57:33;;;;;;;6.25;2.30;;;;;;;6.98;76.62;100817.69;4945692;28;20062;-77
2023/04/14 07:59:59;;;;;;;6.75;2.38;;;;;;;7.05;76.40;100816.72;4935130;28;20032;-77
2023/04/14 08:02:24;;;;;;;5.50;2.00;;;;;;;7.17;76.75;100814.91;4941748;28;21424;-76
2023/04/14 08:04:49;;;;;;;6.50;2.00;;;;;;;7.27;76.05;100813.91;4938808;28;20475;-77
2023/04/14 08:07:15;;;;;;;3.05;1.98;;;;;;;7.39;76.21;100815.47;4940315;28;20085;-77
2023/04/14 08:09:40;;;;;;;5.07;1.80;;;;;;;7.50;75.59;100810.16;4938502;28;20040;-77
2023/04/14 08:12:05;;;;;;;4.60;1.88;;;;;;;7.61;75.22;100813.44;4938826;28;20046;-77
2023/04/14 08:14:31;;;;;;;5.70;1.70;;;;;;;7.70;73.85;100815.91;4924356;28;20023;-77
2023/04/14 08:16:56;;;;;;;5.80;2.03;;;;;;;7.79;74.58;100814.06;4937414;28;20142;-76
2023/04/14 08:19:21;;;;;;;5.47;2.28;;;;;;;7.89;75.64;100815.63;4939221;28;20046;-77
2023/04/14 08:21:46;;;;;;;3.38;1.80;;;;;;;7.98;73.37;100812.03;4938449;28;20055;-77
2023/04/14 08:24:12;;;;;;;3.17;1.52;;;;;;;8.08;73.53;100812.75;4937640;28;20032;-77
2023/04/14 08:26:37;;;;;;;8.57;1.85;;;;;;;8.19;74.48;100810.88;4934610;28;20038;-77
2023/04/14 08:29:02;;;;;;;5.75;1.48;;;;;;;8.27;73.50;100808.16;4936749;28;20492;-77
2023/04/14 08:31:28;;;;;;;6.88;1.88;;;;;;;8.33;73.47;100806.31;4944237;28;20023;-77
2023/04/14 08:33:53;;;;;;;6.82;1.55;;;;;;;8.39;72.56;100817.44;4941316;28;20838;-77
2023/04/14 08:36:18;;;;;;;5.72;1.70;;;;;;;8.42;70.96;100815.66;4934759;28;20042;-77
2023/04/14 08:38:44;;;;;;;4.05;1.50;;;;;;;8.45;72.36;100813.03;4940248;28;20035;-77
2023/04/14 08:41:12;;;;;;;3.97;1.60;;;;;;;8.49;70.79;100819.03;4938455;28;20038;-77
2023/04/14 08:43:37;;;;;;;5.28;2.00;;;;;;;8.53;70.67;100815.50;4945995;28;20118;-76
2023/04/14 08:46:03;;;;;;;5.03;1.50;;;;;;;8.58;72.19;100818.84;4944192;28;20034;-77
2023/04/14 08:48:30;;;;;;;4.07;1.38;;;;;;;8.61;70.50;100816.22;4945314;28;20035;-77
2023/04/14 08:51:23;;;;;;;4.75;1.60;;;;;;;8.62;70.95;100817.94;4940089;28;20082;-77
2023/04/14 08:53:51;;;;;;;4.80;1.42;;;;;;;8.68;70.67;100819.53;4938087;28;20039;-77
2023/04/14 08:56:19;;;;;;;4.63;1.60;;;;;;;8.74;70.97;100816.84;4938986;28;20035;-77
2023/04/14 08:58:46;;;;;;;3.55;1.48;;;;;;;8.76;68.03;100815.09;4943303;28;20039;-77
2023/04/14 09:01:12;;;;;;;5.45;1.58;;;;;;;8.80;70.60;100805.50;4942571;28;20427;-77
2023/04/14 09:03:38;;;;;;;5.35;1.38;;;;;;;8.86;69.01;100809.72;4943596;28;20067;-77
2023/04/14 09:06:05;;;;;;;4.20;1.30;;;;;;;8.90;69.05;100809.63;4945725;28;20026;-76
2023/04/14 09:08:32;;;;;;;4.53;1.30;;;;;;;8.95;68.34;100806.97;4940585;28;20062;-77
2023/04/14 09:11:00;;;;;;;3.78;1.10;;;;;;;9.01;67.22;100808.56;4944972;28;20130;-76
2023/04/14 09:13:27;;;;;;;3.58;0.82;;;;;;;9.06;66.51;100801.53;4940788;28;20039;-77
2023/04/14 09:15:53;;;;;;;4.53;1.10;;;;;;;9.13;66.90;100800.53;4939158;28;20042;-77
2023/04/14 09:18:18;;;;;;;3.78;0.98;;;;;;;9.20;66.85;100799.53;4940831;28;20035;-77
2023/04/14 09:20:46;;;;;;;4.43;1.08;;;;;;;9.29;68.34;100808.00;4940195;28;20031;-77
2023/04/14 09:23:12;;;;;;;4.35;1.05;;;;;;;9.35;66.36;100805.28;4926443;28;20030;-76
2023/04/14 09:25:38;;;;;;;2.53;1.08;;;;;;;9.39;66.06;100804.34;4943991;28;20459;-77
2023/04/14 09:28:03;;;;;;;3.47;1.05;;;;;;;9.44;65.21;100806.84;4940233;28;20051;-76
2023/04/14 09:30:30;;;;;;;5.68;1.33;;;;;;;9.50;63.13;100797.16;4941626;28;20070;-77
2023/04/14 09:32:55;;;;;;;4.53;1.20;;;;;;;9.59;64.00;100795.22;4945414;28;20039;-77
2023/04/14 09:35:21;;;;;;;4.88;1.25;;;;;;;9.63;65.73;100792.56;4946930;28;20073;-77
2023/04/14 09:37:47;;;;;;;2.40;1.30;;;;;;;9.75;68.65;100791.41;4947065;28;20125;-77
2023/04/14 09:40:29;;;;;;;4.95;1.20;;;;;;;9.87;65.06;100785.94;4947066;28;20038;-77
2023/04/14 09:42:55;;;;;;;4.07;1.10;;;;;;;9.97;62.69;100793.50;4945351;28;20039;-77
2023/04/14 09:45:21;;;;;;;3.50;1.20;;;;;;;10.03;63.13;100780.38;4946937;28;20039;-77
2023/04/14 09:47:47;;;;;;;2.20;1.00;;;;;;;10.11;63.09;100782.78;4943930;28;20475;-77
2023/04/14 09:50:13;;;;;;;3.00;1.10;;;;;;;10.22;61.84;100782.50;4942041;28;20153;-77
2023/04/14 09:52:40;;;;;;;2.72;0.93;;;;;;;10.26;61.20;100781.50;4946986;28;21390;-77
2023/04/14 09:55:11;;;;;;;4.38;0.88;;;;;;;10.31;58.21;100772.72;4945518;28;20069;-77
2023/04/14 09:57:37;;;;;;;3.33;0.88;;;;;;;10.32;61.60;100770.97;4946459;28;20079;-77
2023/04/14 10:00:21;;;;;;;2.70;0.95;;;;;;;10.38;62.33;100769.94;4944373;28;20030;-78
2023/04/14 10:02:47;;;;;;;3.38;1.08;;;;;;;10.44;61.91;100775.88;4946989;28;20034;-77
2023/04/14 10:05:13;;;;;;;2.65;1.05;;;;;;;10.43;58.12;100776.75;4944125;28;20082;-77
2023/04/14 10:07:41;;;;;;;2.70;0.98;;;;;;;10.43;60.71;100773.31;4946289;28;20491;-78
2023/04/14 10:10:11;;;;;;;5.03;1.00;;;;;;;10.45;57.61;100769.78;4947618;28;20035;-77
2023/04/14 10:12:39;;;;;;;2.97;0.90;;;;;;;10.50;59.69;100763.59;4943842;28;20440;-77
2023/04/14 10:15:05;;;;;;;2.00;0.80;;;;;;;10.52;58.43;100767.03;4943287;28;20934;-76
2023/04/14 10:17:31;;;;;;;2.55;0.90;;;;;;;10.50;61.74;100759.28;4944739;28;20058;-78
2023/04/14 10:19:57;;;;;;;3.40;0.85;;;;;;;10.52;60.66;100752.25;4946312;28;20059;-78
2023/04/14 10:22:26;;;;;;;4.30;1.00;;;;;;;10.62;60.68;100752.88;4941718;28;20598;-78
2023/04/14 10:24:51;;;;;;;4.75;1.00;;;;;;;10.68;59.61;100752.69;4942051;28;20031;-78
2023/04/14 10:27:17;;;;;;;4.05;0.90;;;;;;;10.73;58.17;100752.56;4941872;28;20090;-78
2023/04/14 10:29:42;;;;;;;3.08;0.75;;;;;;;10.77;59.78;100744.63;4943975;28;20150;-78
2023/04/14 10:32:12;;;;;;;3.90;1.00;;;;;;;10.83;58.01;100750.56;4946243;28;20042;-77
2023/04/14 10:34:39;;;;;;;1.83;0.93;;;;;;;10.90;58.39;100742.53;4945086;28;20114;-77
2023/04/14 10:37:15;;;;;;;2.67;0.82;;;;;;;10.97;57.71;100732.78;4946864;28;20292;-77
2023/04/14 10:39:41;;;;;;;1.70;0.60;;;;;;;11.02;55.72;100730.06;4944883;28;20054;-77
2023/04/14 10:42:07;;;;;;;2.55;0.75;;;;;;;11.07;55.00;100726.44;4943456;28;20035;-76
2023/04/14 10:44:34;;;;;;;3.65;0.80;;;;;;;11.13;56.85;100728.00;4941617;28;20042;-77
2023/04/14 10:47:04;;;;;;;2.88;1.00;;;;;;;11.21;54.85;100725.16;4942998;28;20039;-76
2023/04/14 10:49:36;;;;;;;2.17;0.75;;;;;;;11.27;54.37;100724.13;4947000;28;20034;-77
2023/04/14 10:52:04;;;;;;;3.35;0.80;;;;;;;11.24;54.60;100725.09;4942491;28;20031;-76
2023/04/14 10:54:57;;;;;;;2.40;0.80;;;;;;;11.25;55.78;100724.19;4945038;28;20031;-77
2023/04/14 10:57:27;;;;;;;2.40;0.80;;;;;;;11.27;54.51;100727.59;4932402;28;20031;-77
2023/04/14 10:59:55;;;;;;;2.33;0.80;;;;;;;11.28;55.85;100726.66;4944834;28;20093;-78
2023/04/14 11:02:22;;;;;;;1.02;0.70;;;;;;;11.38;55.93;100722.03;4943696;28;20065;-78
2023/04/14 11:05:04;;;;;;;3.42;0.90;;;;;;;11.51;57.18;100715.56;4942793;28;20071;-77
2023/04/14 11:07:31;;;;;;;2.28;0.75;;;;;;;11.64;53.14;100717.75;4945318;28;20035;-77
2023/04/14 11:10:17;;;;;;;2.53;0.82;;;;;;;11.67;52.74;100713.28;4943007;28;20450;-77
2023/04/14 11:12:43;;;;;;;4.55;0.88;;;;;;;11.68;52.73;100708.94;4934538;28;20065;-77
2023/04/14 11:15:09;;;;;;;1.88;0.70;;;;;;;11.73;52.58;100703.59;4949273;28;20042;-77
2023/04/14 11:17:38;;;;;;;2.38;0.70;;;;;;;11.81;53.06;100698.97;4948546;28;20035;-77
2023/04/14 11:20:18;;;;;;;2.22;0.85;;;;;;;11.95;53.77;100699.38;4947452;28;20103;-77
2023/04/14 11:22:46;;;;;;;3.08;0.85;;;;;;;12.01;51.20;100700.94;4945824;28;20375;-77
2023/04/14 11:25:16;;;;;;;2.45;0.68;;;;;;;12.17;54.37;100695.19;4947661;28;20031;-77
2023/04/14 11:27:43;;;;;;;2.67;0.80;;;;;;;12.37;51.71;100694.50;4943501;28;20534;-77
2023/04/14 11:30:13;;;;;;;2.83;0.82;;;;;;;12.53;49.58;100692.19;4941741;28;20107;-79
2023/04/14 11:32:52;;;;;;;3.45;0.70;;;;;;;12.54;51.86;100694.72;4943316;28;20093;-77